Terminal Aerodrome Forecast
Issued by NWS

Home | Current Version | Previous Version | Text Only | Print | Product List | Glossary On
Versions: 1 2 3 4 5 6 7 8 9 10 11 12 13 14 15
000
FTUS46 KHNX 212150 AAA
TAFFAT
TAF AMD
KFAT 212150Z 2122/2218 VRB04KT 5SM BR BKN030
     FM220800 VRB03KT 1/4SM FG VV001=

USA.gov is the U.S. government's official web portal to all federal, state and local government web resources and services.